Time;durP1;ratioP1;P1;durP2;ratioP2;P2;SDS_P1;SDS_P2;PMS_P1;PMS_P2;Temp;Humidity;BMP_temperature;BMP_pressure;BME280_temperature;BME280_humidity;BME280_pressure;Samples;Min_cycle;Max_cycle;Signal;HPM_P1;HPM_P2
2021/03/06 00:00:17;;;;;;;7.25;4.60;;;;;;;-2.02;99.61;102993.72;4925157;28;20047;-78
2021/03/06 00:02:43;;;;;;;8.65;5.28;;;;;;;-2.03;97.93;102981.47;4940079;28;20031;-79
2021/03/06 00:05:10;;;;;;;8.20;5.22;;;;;;;-1.99;99.08;102985.75;4947596;28;20050;-78
2021/03/06 00:07:36;;;;;;;6.45;5.07;;;;;;;-1.99;99.36;102986.63;4947598;28;20047;-78
2021/03/06 00:10:04;;;;;;;6.13;5.00;;;;;;;-2.12;98.44;102993.03;4946973;28;20811;-79
2021/03/06 00:12:30;;;;;;;10.27;5.18;;;;;;;-2.19;98.42;102994.88;4944803;28;20051;-77
2021/03/06 00:14:55;;;;;;;6.43;4.95;;;;;;;-2.18;99.00;102991.38;4948409;28;20320;-79
2021/03/06 00:17:20;;;;;;;7.95;5.05;;;;;;;-2.10;99.31;102989.47;4949724;28;20463;-79
2021/03/06 00:19:46;;;;;;;9.93;5.57;;;;;;;-2.09;99.63;102991.19;4947809;28;20102;-78
2021/03/06 00:22:11;;;;;;;7.45;4.85;;;;;;;-2.10;98.92;102988.59;4949059;29;20050;-79
2021/03/06 00:24:37;;;;;;;7.05;5.00;;;;;;;-2.09;99.77;102979.81;4947407;28;20071;-80
2021/03/06 00:27:02;;;;;;;7.93;5.65;;;;;;;-2.09;100.00;102990.34;4946737;28;20039;-79
2021/03/06 00:29:28;;;;;;;9.25;5.43;;;;;;;-2.17;99.66;102990.47;4944618;28;20379;-79
2021/03/06 00:31:53;;;;;;;8.98;5.40;;;;;;;-2.18;99.51;102994.00;4962792;28;20392;-79
2021/03/06 00:34:19;;;;;;;5.95;4.85;;;;;;;-2.30;99.13;102988.97;4946215;28;20059;-79
2021/03/06 00:36:44;;;;;;;7.80;5.10;;;;;;;-2.32;99.46;102993.38;4947506;28;20473;-79
2021/03/06 00:39:10;;;;;;;7.90;5.93;;;;;;;-2.31;99.87;102997.75;4947712;28;20049;-79
2021/03/06 00:41:35;;;;;;;8.55;6.18;;;;;;;-2.35;99.45;102998.72;4934393;29;20134;-79
2021/03/06 00:44:01;;;;;;;8.80;6.00;;;;;;;-2.36;99.51;102994.31;4949868;28;20503;-79
2021/03/06 00:51:29;;;;;;;8.98;6.03;;;;;;;-2.44;100.00;102996.25;4989013;28;20045;-79
2021/03/06 00:53:55;;;;;;;7.60;6.00;;;;;;;-2.48;100.00;102992.78;4979176;28;20034;-86
2021/03/06 00:56:22;;;;;;;7.30;5.72;;;;;;;-2.45;100.00;102983.97;4971690;28;20077;-77
2021/03/06 00:58:47;;;;;;;8.35;6.13;;;;;;;-2.51;100.00;102985.81;4949858;28;20050;-80
2021/03/06 01:01:14;;;;;;;7.72;6.00;;;;;;;-2.50;100.00;102991.97;4973459;28;20042;-85
2021/03/06 01:03:45;;;;;;;8.20;6.25;;;;;;;-2.44;100.00;102991.00;4971257;28;20037;-82
2021/03/06 01:06:11;;;;;;;8.40;6.07;;;;;;;-2.44;100.00;102985.72;4987155;28;20042;-82
2021/03/06 01:08:36;;;;;;;9.23;6.93;;;;;;;-2.40;100.00;102982.13;4988958;28;20069;-86
2021/03/06 01:11:02;;;;;;;8.15;6.55;;;;;;;-2.47;100.00;102985.75;4983739;28;20042;-80
2021/03/06 01:13:29;;;;;;;10.20;6.40;;;;;;;-2.46;100.00;102977.84;4971597;28;20445;-80
2021/03/06 01:15:56;;;;;;;7.75;6.70;;;;;;;-2.51;100.00;102983.19;4985432;28;20121;-83
2021/03/06 01:18:21;;;;;;;11.88;7.10;;;;;;;-2.52;100.00;102978.81;4993286;28;20429;-82
2021/03/06 01:20:47;;;;;;;9.20;6.50;;;;;;;-2.60;100.00;102980.72;4984493;28;20047;-81
2021/03/06 01:23:15;;;;;;;10.00;6.75;;;;;;;-2.59;100.00;102981.56;4988031;28;20046;-79
2021/03/06 01:25:43;;;;;;;8.65;6.80;;;;;;;-2.61;100.00;102984.25;4993261;28;20667;-82
2021/03/06 01:28:08;;;;;;;8.02;6.55;;;;;;;-2.64;100.00;102983.44;5004053;28;20057;-84
2021/03/06 01:30:36;;;;;;;8.75;6.82;;;;;;;-2.57;100.00;102974.53;4979327;28;20138;-85
2021/03/06 01:33:03;;;;;;;8.73;6.90;;;;;;;-2.66;100.00;102967.69;4976980;28;20042;-86
2021/03/06 01:35:30;;;;;;;9.05;7.35;;;;;;;-2.72;100.00;102966.03;4980330;28;20054;-84
2021/03/06 01:37:55;;;;;;;10.10;6.93;;;;;;;-2.66;100.00;102967.69;4981859;28;20503;-80
2021/03/06 01:40:33;;;;;;;16.48;7.35;;;;;;;-2.71;100.00;102974.75;4948586;28;20083;-82
2021/03/06 01:43:09;;;;;;;8.93;7.10;;;;;;;-2.79;100.00;102974.03;4990889;28;20042;-81
2021/03/06 01:45:37;;;;;;;14.23;8.60;;;;;;;-2.85;100.00;102961.00;4992300;28;20112;-80
2021/03/06 01:48:06;;;;;;;14.10;7.80;;;;;;;-2.77;100.00;102961.72;4987370;28;20161;-86
2021/03/06 01:50:36;;;;;;;12.52;8.75;;;;;;;-2.77;100.00;102961.72;4987526;28;20061;-82
2021/03/06 01:53:06;;;;;;;10.30;8.13;;;;;;;-2.87;100.00;102958.41;5003744;28;20047;-82
2021/03/06 01:55:35;;;;;;;12.07;8.32;;;;;;;-2.90;100.00;102962.84;4976969;28;20069;-79
2021/03/06 01:58:01;;;;;;;15.00;8.10;;;;;;;-2.85;100.00;102968.88;4995226;28;20122;-80
2021/03/06 02:00:28;;;;;;;11.48;8.77;;;;;;;-2.80;100.00;102956.53;4985775;28;20046;-81
2021/03/06 02:02:54;;;;;;;9.65;8.25;;;;;;;-2.89;100.00;102967.19;4989521;28;20414;-84
2021/03/06 02:05:20;;;;;;;11.35;8.55;;;;;;;-2.96;100.00;102962.03;4970214;28;20042;-78
2021/03/06 02:07:47;;;;;;;11.65;8.60;;;;;;;-3.05;100.00;102959.56;4982685;28;20038;-83
2021/03/06 02:10:14;;;;;;;11.18;8.02;;;;;;;-2.94;100.00;102959.38;4975427;28;20059;-80
2021/03/06 02:13:08;;;;;;;10.60;8.35;;;;;;;-2.94;100.00;102969.88;4973358;28;20093;-83
2021/03/06 02:15:59;;;;;;;12.57;8.60;;;;;;;-2.95;100.00;102963.78;4987071;28;20045;-85
2021/03/06 02:18:39;;;;;;;11.23;8.15;;;;;;;-2.96;100.00;102967.31;4967865;28;20541;-82
2021/03/06 02:21:17;;;;;;;14.77;9.20;;;;;;;-2.94;100.00;102964.63;4986127;28;20051;-86
2021/03/06 02:24:01;;;;;;;12.43;8.50;;;;;;;-2.96;100.00;102962.03;4986896;28;20553;-85
2021/03/06 02:26:39;;;;;;;11.35;8.65;;;;;;;-3.02;100.00;102964.78;4988398;28;20514;-78
2021/03/06 02:29:23;;;;;;;10.73;7.93;;;;;;;-2.95;100.00;102969.03;4967300;28;20067;-85
2021/03/06 02:31:51;;;;;;;11.45;8.10;;;;;;;-2.99;100.00;102966.47;4985020;28;20050;-82
2021/03/06 02:34:21;;;;;;;13.13;8.55;;;;;;;-2.95;100.00;102968.16;4967867;28;20098;-82
2021/03/06 02:36:52;;;;;;;10.75;8.38;;;;;;;-2.99;100.00;102969.97;4966137;28;20559;-82
2021/03/06 02:39:21;;;;;;;12.68;8.27;;;;;;;-3.01;100.00;102965.63;4980232;28;20046;-80
2021/03/06 02:41:48;;;;;;;11.48;8.57;;;;;;;-3.03;100.00;102970.91;4986484;28;20061;-79
2021/03/06 02:44:15;;;;;;;11.30;8.40;;;;;;;-3.08;100.00;102967.50;4986616;28;20073;-80
2021/03/06 02:46:42;;;;;;;12.95;8.60;;;;;;;-3.08;100.00;102967.50;4990267;28;20045;-82
2021/03/06 02:49:07;;;;;;;11.55;8.30;;;;;;;-3.08;100.00;102966.59;4988443;28;20062;-79
2021/03/06 02:51:39;;;;;;;9.40;7.72;;;;;;;-3.12;99.80;102968.41;4984557;28;20130;-85
2021/03/06 02:54:06;;;;;;;11.18;8.00;;;;;;;-3.08;100.00;102967.50;5003774;28;20042;-83
2021/03/06 02:56:33;;;;;;;13.43;8.23;;;;;;;-3.13;100.00;102971.09;4956668;28;20038;-79
2021/03/06 02:59:29;;;;;;;12.00;8.35;;;;;;;-3.16;100.00;102974.63;5000345;28;20038;-81
2021/03/06 03:02:16;;;;;;;10.30;8.57;;;;;;;-3.11;100.00;102970.13;4971576;28;20047;-81
2021/03/06 03:04:48;;;;;;;11.30;8.60;;;;;;;-3.14;100.00;102962.31;4996488;28;20054;-83
2021/03/06 03:07:23;;;;;;;14.48;8.52;;;;;;;-3.16;100.00;102964.13;4996424;28;20067;-79
2021/03/06 03:09:55;;;;;;;11.63;8.82;;;;;;;-3.19;100.00;102949.25;4987658;28;20050;-78
2021/03/06 03:12:27;;;;;;;11.05;9.38;;;;;;;-3.20;100.00;102951.91;5001961;28;20057;-81
2021/03/06 03:15:36;;;;;;;11.20;9.13;;;;;;;-3.24;100.00;102947.59;4990374;28;20058;-82
2021/03/06 03:18:03;;;;;;;13.45;9.93;;;;;;;-3.30;100.00;102955.56;4977984;28;20468;-82
2021/03/06 03:20:43;;;;;;;11.77;9.73;;;;;;;-3.46;100.00;102953.13;4960046;28;20055;-82
2021/03/06 03:23:14;;;;;;;12.50;9.13;;;;;;;-3.49;100.00;102954.94;5009685;28;20080;-83
2021/03/06 03:25:42;;;;;;;12.45;9.75;;;;;;;-3.51;100.00;102951.47;4986731;28;20054;-78
2021/03/06 03:28:09;;;;;;;13.07;10.15;;;;;;;-3.49;100.00;102953.19;4987995;28;20046;-82
2021/03/06 03:30:36;;;;;;;14.60;10.60;;;;;;;-3.48;100.00;102952.31;4988172;28;20130;-86
2021/03/06 03:33:04;;;;;;;14.98;11.00;;;;;;;-3.42;100.00;102941.72;4969456;28;20109;-82
2021/03/06 03:35:31;;;;;;;13.82;10.18;;;;;;;-3.53;100.00;102946.25;4988447;28;20734;-78
2021/03/06 03:37:58;;;;;;;14.35;10.35;;;;;;;-3.61;100.00;102942.00;4976951;28;20125;-82
2021/03/06 03:40:23;;;;;;;13.05;10.30;;;;;;;-3.61;100.00;102945.50;4987747;28;20097;-79
2021/03/06 03:42:49;;;;;;;14.80;10.85;;;;;;;-3.55;100.00;102939.28;4990979;28;20038;-80
2021/03/06 03:45:18;;;;;;;14.55;10.52;;;;;;;-3.56;100.00;102943.69;4989209;28;20399;-78
2021/03/06 03:47:44;;;;;;;13.13;10.70;;;;;;;-3.66;100.00;102936.78;4991052;28;20034;-78
2021/03/06 03:50:11;;;;;;;13.40;10.15;;;;;;;-3.67;100.00;102938.56;4988945;28;20434;-85
2021/03/06 03:52:42;;;;;;;15.38;11.18;;;;;;;-3.73;100.00;102937.78;4991504;28;20041;-81
2021/03/06 03:55:09;;;;;;;14.95;10.70;;;;;;;-3.69;100.00;102945.56;4989067;28;20061;-81
2021/03/06 03:57:35;;;;;;;14.65;12.05;;;;;;;-3.75;100.00;102947.41;4988202;28;20100;-80
2021/03/06 04:00:03;;;;;;;14.98;11.80;;;;;;;-3.70;100.00;102943.00;4990992;28;20050;-82
2021/03/06 04:02:29;;;;;;;14.75;11.02;;;;;;;-3.69;100.00;102947.34;4993150;28;20045;-80
2021/03/06 04:04:55;;;;;;;12.32;10.68;;;;;;;-3.79;100.00;102953.59;4989683;28;20096;-79
2021/03/06 04:07:20;;;;;;;15.68;11.82;;;;;;;-3.72;100.00;102953.50;4992058;28;20050;-78
2021/03/06 04:09:46;;;;;;;14.55;11.25;;;;;;;-3.78;100.00;102953.56;4990193;28;20035;-82
2021/03/06 04:12:11;;;;;;;12.80;11.20;;;;;;;-3.76;100.00;102950.94;4992503;28;20429;-81
2021/03/06 04:14:37;;;;;;;13.38;11.60;;;;;;;-3.82;100.00;102964.16;4974082;28;20129;-84
2021/03/06 04:17:02;;;;;;;15.60;11.38;;;;;;;-3.83;100.00;102971.13;4973705;28;20054;-81
2021/03/06 04:19:27;;;;;;;16.55;12.23;;;;;;;-3.80;100.00;102963.22;4986599;28;20038;-82
2021/03/06 04:21:53;;;;;;;14.80;11.68;;;;;;;-3.93;100.00;102970.38;4986686;28;20077;-77
2021/03/06 04:24:18;;;;;;;18.23;11.90;;;;;;;-3.87;100.00;102966.81;4991120;28;20042;-82
2021/03/06 04:26:43;;;;;;;14.65;10.75;;;;;;;-3.95;100.00;102972.13;4984684;28;20076;-82
2021/03/06 04:29:09;;;;;;;14.00;11.57;;;;;;;-3.96;100.00;102973.03;4948927;29;20125;-80
2021/03/06 04:31:34;;;;;;;12.80;10.55;;;;;;;-3.96;100.00;102975.66;4971162;28;20046;-80
2021/03/06 04:33:59;;;;;;;14.80;11.30;;;;;;;-3.95;100.00;102972.13;4988830;28;20062;-80
2021/03/06 04:36:25;;;;;;;16.13;11.98;;;;;;;-3.92;100.00;102974.72;4969386;28;20046;-80
2021/03/06 04:38:50;;;;;;;14.85;11.38;;;;;;;-3.89;100.00;102972.06;4967907;28;20047;-85
2021/03/06 04:41:16;;;;;;;19.02;12.60;;;;;;;-3.96;100.00;102980.03;4965968;28;20053;-80
2021/03/06 04:43:41;;;;;;;16.05;12.25;;;;;;;-3.98;100.00;102987.06;4979230;28;20046;-83
2021/03/06 04:46:06;;;;;;;15.90;12.18;;;;;;;-3.97;100.00;102987.03;4968810;28;20054;-84
2021/03/06 04:48:35;;;;;;;18.40;12.55;;;;;;;-4.02;100.00;102978.34;4972893;28;20035;-81
2021/03/06 04:51:00;;;;;;;16.67;12.37;;;;;;;-4.04;100.00;102981.88;4949931;28;20047;-80
2021/03/06 04:53:25;;;;;;;16.65;12.90;;;;;;;-3.99;100.00;102986.19;4969758;28;20043;-84
2021/03/06 04:55:51;;;;;;;16.65;12.43;;;;;;;-4.03;100.00;102979.22;4987319;28;20057;-83
2021/03/06 04:58:16;;;;;;;18.65;12.73;;;;;;;-4.04;100.00;102980.13;4983665;28;20368;-80
2021/03/06 05:00:43;;;;;;;18.48;13.50;;;;;;;-3.96;100.00;102975.66;4988199;28;20092;-80
2021/03/06 05:03:08;;;;;;;16.40;13.07;;;;;;;-3.96;100.00;102985.28;4986777;28;20038;-79
2021/03/06 05:05:34;;;;;;;16.70;11.38;;;;;;;-4.01;100.00;102990.56;4986112;28;20057;-81
2021/03/06 05:07:59;;;;;;;16.95;12.57;;;;;;;-4.05;100.00;102991.50;4989969;28;20046;-84
2021/03/06 05:10:24;;;;;;;17.30;12.00;;;;;;;-4.04;100.00;102993.22;4983756;28;20090;-78
2021/03/06 05:12:50;;;;;;;20.58;13.05;;;;;;;-4.01;100.00;102994.97;4987965;28;20050;-80
2021/03/06 05:15:16;;;;;;;17.67;12.93;;;;;;;-4.10;100.00;102995.94;5005515;28;20129;-83
2021/03/06 05:17:41;;;;;;;20.10;13.68;;;;;;;-4.08;100.00;102996.78;4968760;28;20513;-81
2021/03/06 05:20:07;;;;;;;19.42;13.52;;;;;;;-4.06;100.00;103000.25;4983222;28;20046;-79
2021/03/06 05:22:33;;;;;;;20.48;13.88;;;;;;;-4.03;100.00;102994.97;4991705;28;20474;-81
2021/03/06 05:24:58;;;;;;;20.50;14.00;;;;;;;-4.08;100.00;103004.66;4989246;28;20046;-84
2021/03/06 05:27:23;;;;;;;22.88;15.10;;;;;;;-4.13;100.00;102995.97;4974230;28;20049;-83
2021/03/06 05:29:49;;;;;;;19.08;14.63;;;;;;;-4.20;100.00;102992.53;4973177;28;20051;-77
2021/03/06 05:32:14;;;;;;;20.63;14.70;;;;;;;-4.18;100.00;103000.38;4983489;28;20492;-80
2021/03/06 05:34:39;;;;;;;21.77;14.95;;;;;;;-4.15;100.00;103002.97;4988776;28;20053;-80
2021/03/06 05:37:05;;;;;;;18.83;15.23;;;;;;;-4.22;100.00;103001.31;4983858;28;20485;-82
2021/03/06 05:39:30;;;;;;;19.58;14.98;;;;;;;-4.24;100.00;103000.44;4985508;28;20034;-80
2021/03/06 05:41:56;;;;;;;20.40;14.98;;;;;;;-4.16;100.00;103006.47;4976333;28;20476;-77
2021/03/06 05:44:22;;;;;;;20.05;15.55;;;;;;;-4.22;100.00;103009.16;4991087;28;20037;-79
2021/03/06 05:46:47;;;;;;;17.77;14.63;;;;;;;-4.29;100.00;103007.47;4986569;28;20502;-80
2021/03/06 05:49:14;;;;;;;21.83;15.32;;;;;;;-4.36;100.00;103018.03;4983861;28;20487;-80
2021/03/06 05:51:40;;;;;;;22.13;15.90;;;;;;;-4.33;100.00;103012.75;4980502;28;20490;-85
2021/03/06 05:54:09;;;;;;;23.20;16.35;;;;;;;-4.35;100.00;103005.78;4983403;28;20054;-82
2021/03/06 05:56:41;;;;;;;22.08;16.08;;;;;;;-4.33;100.00;103010.13;4986703;28;20038;-76
2021/03/06 05:59:09;;;;;;;21.70;15.75;;;;;;;-4.35;100.00;103004.03;4984686;28;20047;-85
2021/03/06 06:01:36;;;;;;;21.02;15.75;;;;;;;-4.29;100.00;103007.47;4969513;28;20106;-80
2021/03/06 06:04:06;;;;;;;19.63;16.10;;;;;;;-4.26;100.00;103005.69;5006162;28;20479;-80
2021/03/06 06:06:34;;;;;;;20.15;14.88;;;;;;;-4.32;100.00;103001.38;4982577;28;20383;-79
2021/03/06 06:09:00;;;;;;;21.05;15.00;;;;;;;-4.34;100.00;103004.91;4989008;28;20050;-86
2021/03/06 06:11:29;;;;;;;19.13;15.27;;;;;;;-4.38;100.00;103008.44;4990199;28;20064;-82
2021/03/06 06:13:55;;;;;;;;;;;;;;;-4.39;100.00;103010.19;5006211;28;20038;-83
2021/03/06 06:16:23;;;;;;;22.00;15.52;;;;;;;-4.40;100.00;103015.44;4990815;28;20006;-80
2021/03/06 06:18:49;;;;;;;22.45;15.77;;;;;;;-4.40;100.00;103016.31;4985373;28;20046;-79
2021/03/06 06:21:37;;;;;;;23.40;15.43;;;;;;;-4.40;100.00;103025.91;4998380;28;20100;-80
2021/03/06 06:24:06;;;;;;;22.25;15.98;;;;;;;-4.39;100.00;103019.81;4985825;28;20174;-78
2021/03/06 06:26:32;;;;;;;22.65;16.02;;;;;;;-4.41;100.00;103014.56;4983815;28;20089;-81
2021/03/06 06:28:58;;;;;;;20.08;15.80;;;;;;;-4.34;100.00;103013.63;4991634;28;20034;-78
2021/03/06 06:31:24;;;;;;;19.13;15.73;;;;;;;-4.29;100.00;103020.59;4992895;28;20042;-82
2021/03/06 06:33:52;;;;;;;22.25;16.52;;;;;;;-4.24;100.00;103016.16;4986671;28;20105;-77
2021/03/06 06:36:34;;;;;;;20.80;16.08;;;;;;;-4.26;100.00;103023.16;4999816;28;20545;-83
2021/03/06 06:39:03;;;;;;;20.40;15.93;;;;;;;-4.27;100.00;103031.94;4990198;28;20041;-83
2021/03/06 06:41:57;;;;;;;21.92;15.13;;;;;;;-4.28;100.00;103035.44;4992341;28;20196;-79
2021/03/06 06:44:24;;;;;;;20.95;16.40;;;;;;;-4.21;100.00;103032.72;4973433;28;20046;-79
2021/03/06 06:46:51;;;;;;;22.85;16.27;;;;;;;-4.11;100.00;103034.41;4987667;28;20038;-78
2021/03/06 06:49:17;;;;;;;25.50;16.02;;;;;;;-4.11;100.00;103034.41;5004604;28;20539;-77
2021/03/06 06:52:01;;;;;;;20.35;15.80;;;;;;;-4.07;100.00;103035.22;4986995;28;20674;-77
2021/03/06 06:54:30;;;;;;;23.08;16.60;;;;;;;-4.04;100.00;103037.81;4985699;28;20047;-81
2021/03/06 06:57:18;;;;;;;21.05;16.88;;;;;;;-3.96;100.00;103041.25;4989900;28;20034;-79
2021/03/06 06:59:55;;;;;;;26.52;17.38;;;;;;;-3.94;100.00;103041.19;4980158;28;20046;-81
2021/03/06 07:02:23;;;;;;;27.55;20.58;;;;;;;-3.82;100.00;103048.09;4974094;28;20435;-80
2021/03/06 07:04:54;;;;;;;33.63;23.10;;;;;;;-3.84;100.00;103055.09;4984705;28;20035;-84
2021/03/06 07:07:22;;;;;;;33.47;24.67;;;;;;;-3.75;100.00;103061.13;4991169;28;20034;-76
2021/03/06 07:09:59;;;;;;;44.15;30.77;;;;;;;-3.60;100.00;103062.69;4988033;28;20069;-82
2021/03/06 07:12:29;;;;;;;35.20;24.58;;;;;;;-3.57;100.00;103062.66;4989552;28;20137;-78
2021/03/06 07:14:54;;;;;;;30.23;19.83;;;;;;;-3.53;100.00;103069.63;4989015;28;20074;-78
2021/03/06 07:17:23;;;;;;;35.40;25.95;;;;;;;-3.45;100.00;103072.16;4997118;28;20068;-79
2021/03/06 07:19:48;;;;;;;42.70;30.60;;;;;;;-3.32;100.00;103062.38;4972718;28;20047;-81
2021/03/06 07:22:18;;;;;;;25.52;20.02;;;;;;;-3.19;100.00;103069.22;4992284;28;20042;-78
2021/03/06 07:24:44;;;;;;;26.20;19.08;;;;;;;-3.00;100.00;103068.06;4985090;28;20108;-82
2021/03/06 07:27:10;;;;;;;31.27;22.02;;;;;;;-2.87;100.00;103065.28;4992805;28;20042;-84
2021/03/06 07:29:36;;;;;;;31.35;24.10;;;;;;;-2.75;100.00;103065.94;4976584;28;20054;-77
2021/03/06 07:32:06;;;;;;;33.75;24.25;;;;;;;-2.62;100.00;103065.75;4971565;28;20101;-80
2021/03/06 07:34:35;;;;;;;31.95;23.73;;;;;;;-2.54;100.00;103063.88;4978992;28;20546;-79
2021/03/06 07:37:05;;;;;;;33.55;22.10;;;;;;;-2.48;100.00;103063.78;4975277;28;20038;-79
2021/03/06 07:39:37;;;;;;;;;;;;;;;-2.48;100.00;103068.16;4980076;28;20042;-77
2021/03/06 07:42:07;;;;;;;29.27;21.75;;;;;;;-2.44;100.00;103067.25;4975976;28;19918;-82
2021/03/06 07:44:39;;;;;;;40.40;21.88;;;;;;;-2.39;100.00;103068.00;4973908;28;20061;-83
2021/03/06 07:47:08;;;;;;;29.50;21.52;;;;;;;-2.22;100.00;103073.84;4961757;28;20054;-81
2021/03/06 07:49:34;;;;;;;29.40;21.65;;;;;;;-2.12;100.00;103062.28;4976673;28;20066;-80
2021/03/06 07:52:01;;;;;;;27.50;20.48;;;;;;;-2.07;100.00;103070.97;4984691;28;20045;-78
2021/03/06 07:54:27;;;;;;;27.75;21.52;;;;;;;-1.94;100.00;103065.50;4989342;28;20042;-77
2021/03/06 07:56:54;;;;;;;29.63;20.30;;;;;;;-1.88;100.00;103065.38;4984491;28;20116;-81
2021/03/06 07:59:52;;;;;;;28.30;21.40;;;;;;;-1.74;100.00;103067.75;5000774;28;20423;-82
2021/03/06 08:02:38;;;;;;;29.55;20.90;;;;;;;-1.73;100.00;103064.22;4987718;28;20049;-82
2021/03/06 08:05:53;;;;;;;27.23;18.58;;;;;;;-1.67;100.00;103069.34;4996749;28;20165;-78
2021/03/06 08:08:36;;;;;;;28.67;18.40;;;;;;;-1.57;100.00;103070.06;4981055;28;20108;-78
2021/03/06 08:11:10;;;;;;;23.80;18.08;;;;;;;-1.45;100.00;103065.41;4979982;28;20549;-81
2021/03/06 08:13:37;;;;;;;24.80;16.75;;;;;;;-1.25;100.00;103072.88;4969776;28;20050;-83
2021/03/06 08:19:00;;;;;;;24.42;15.95;;;;;;;-0.95;98.93;103075.75;4962894;28;20559;-83
2021/03/06 08:21:36;;;;;;;23.40;15.02;;;;;;;-0.78;98.31;103063.06;4964149;28;20506;-79
2021/03/06 08:24:13;;;;;;;25.55;15.30;;;;;;;-0.55;98.09;103059.88;4967905;28;20113;-83
2021/03/06 08:27:01;;;;;;;21.48;14.77;;;;;;;-0.34;97.99;103060.28;4978856;28;20046;-80
2021/03/06 08:29:26;;;;;;;21.05;17.65;;;;;;;-0.16;96.74;103062.44;4950750;28;20038;-79
2021/03/06 08:31:57;;;;;;;24.48;16.65;;;;;;;0.03;95.92;103057.56;4971621;28;20101;-78
2021/03/06 08:34:39;;;;;;;27.92;17.85;;;;;;;0.24;94.34;103052.59;4977045;28;20058;-79
2021/03/06 08:37:19;;;;;;;26.73;17.88;;;;;;;0.40;92.89;103057.41;5013328;28;20510;-77
2021/03/06 08:39:58;;;;;;;33.08;18.00;;;;;;;0.54;91.60;103058.78;4970091;28;20407;-77
2021/03/06 08:42:29;;;;;;;;;;;;;;;0.74;92.01;103063.47;4984330;28;20038;-79
2021/03/06 08:44:58;;;;;;;25.25;16.35;;;;;;;0.78;90.81;103060.72;4991364;28;19922;-80
2021/03/06 08:47:28;;;;;;;21.10;13.55;;;;;;;0.93;89.07;103062.03;4994956;28;20034;-82
2021/03/06 08:49:59;;;;;;;15.18;8.73;;;;;;;1.04;87.35;103067.84;4959057;28;20570;-84
2021/03/06 08:52:27;;;;;;;14.60;9.38;;;;;;;1.22;86.13;103062.91;4962456;28;20496;-80
2021/03/06 08:54:53;;;;;;;15.65;9.77;;;;;;;1.34;86.10;103065.16;4975743;28;20074;-80
2021/03/06 08:57:24;;;;;;;14.57;8.88;;;;;;;1.45;84.32;103054.25;4969060;28;20073;-78
2021/03/06 08:59:51;;;;;;;13.32;8.65;;;;;;;1.66;84.71;103060.59;4968025;28;20082;-79
2021/03/06 09:02:18;;;;;;;18.00;7.93;;;;;;;1.95;83.65;103055.16;4975301;28;20749;-82
2021/03/06 09:04:45;;;;;;;13.77;7.18;;;;;;;2.19;81.92;103063.19;4978392;28;20043;-82
2021/03/06 09:07:23;;;;;;;14.27;8.15;;;;;;;2.41;81.88;103064.13;4990697;28;20054;-78
2021/03/06 09:09:49;;;;;;;12.88;7.55;;;;;;;2.42;79.61;103070.31;4988761;28;20050;-83
2021/03/06 09:12:14;;;;;;;9.32;4.82;;;;;;;2.49;77.37;103071.81;4957937;28;20097;-80
2021/03/06 09:14:40;;;;;;;13.98;7.50;;;;;;;2.62;78.86;103077.53;4976813;28;20050;-84
2021/03/06 09:17:09;;;;;;;14.98;7.85;;;;;;;2.68;79.95;103077.31;4970672;28;20395;-81
2021/03/06 09:19:35;;;;;;;11.88;7.18;;;;;;;2.65;78.56;103077.44;4993268;28;20042;-80
2021/03/06 09:22:03;;;;;;;7.28;3.85;;;;;;;2.61;73.58;103076.66;4982519;28;20045;-81
2021/03/06 09:24:49;;;;;;;9.55;5.38;;;;;;;2.61;72.35;103081.09;4990724;28;20125;-84
2021/03/06 09:27:16;;;;;;;9.98;5.20;;;;;;;2.61;73.16;103081.09;4990087;28;20558;-80
2021/03/06 09:29:43;;;;;;;10.75;4.50;;;;;;;2.76;72.60;103072.56;4992128;28;20113;-79
2021/03/06 09:32:09;;;;;;;8.85;3.78;;;;;;;2.87;71.09;103067.72;4989299;28;20101;-81
2021/03/06 09:34:35;;;;;;;9.32;2.50;;;;;;;2.89;70.92;103065.88;4996588;28;20430;-80
2021/03/06 09:37:19;;;;;;;7.38;3.30;;;;;;;3.09;71.70;103069.53;4981370;28;20046;-80
2021/03/06 09:39:45;;;;;;;4.65;2.40;;;;;;;3.08;69.86;103073.09;4960184;28;20469;-80
2021/03/06 09:42:17;;;;;;;7.07;2.47;;;;;;;3.03;68.94;103065.34;4962571;28;20122;-80
2021/03/06 09:44:49;;;;;;;5.70;2.85;;;;;;;3.01;72.42;103063.66;4972161;28;20043;-80
2021/03/06 09:47:24;;;;;;;5.25;2.60;;;;;;;3.10;70.81;103058.84;4976991;28;20054;-78
2021/03/06 09:49:49;;;;;;;8.32;2.00;;;;;;;3.29;69.69;103063.44;4973452;28;20075;-81
2021/03/06 09:52:14;;;;;;;3.35;1.60;;;;;;;3.33;70.80;103055.28;4968086;28;20082;-78
2021/03/06 09:54:40;;;;;;;4.80;1.80;;;;;;;3.33;69.79;103057.09;4983637;28;20488;-81
2021/03/06 09:57:06;;;;;;;2.40;1.00;;;;;;;3.52;67.73;103049.25;4982899;28;20112;-81
2021/03/06 09:59:37;;;;;;;2.92;1.48;;;;;;;3.64;70.46;103051.38;4982226;28;20270;-83
2021/03/06 10:02:04;;;;;;;8.55;1.90;;;;;;;3.74;68.15;103044.78;4987975;28;20146;-81
2021/03/06 10:04:30;;;;;;;5.65;2.00;;;;;;;3.68;69.00;103042.34;4964246;28;20137;-79
2021/03/06 10:06:58;;;;;;;7.78;2.25;;;;;;;3.75;69.05;103040.31;4982054;28;20150;-81
2021/03/06 10:09:25;;;;;;;4.00;2.20;;;;;;;3.84;70.22;103037.25;4984483;28;20049;-80
2021/03/06 10:11:53;;;;;;;8.57;3.10;;;;;;;4.07;68.53;103038.91;4980883;28;20058;-81
2021/03/06 10:14:22;;;;;;;6.60;2.80;;;;;;;3.87;68.95;103044.25;4960913;28;20565;-80
2021/03/06 10:16:51;;;;;;;7.53;2.85;;;;;;;3.91;68.52;103043.16;4978190;28;20043;-81
2021/03/06 10:19:17;;;;;;;;;;;;;;;3.82;68.77;103049.72;4987109;28;20042;-79
2021/03/06 10:22:00;;;;;;;4.47;3.42;;;;;;;3.86;66.99;103038.06;4982231;28;19972;-82
2021/03/06 10:24:26;;;;;;;5.85;2.00;;;;;;;4.00;70.84;103034.78;4982435;28;20069;-80
2021/03/06 10:26:59;;;;;;;5.07;2.05;;;;;;;4.24;67.48;103047.00;4981925;28;20057;-82
2021/03/06 10:29:25;;;;;;;4.38;1.90;;;;;;;4.24;67.83;103052.31;4982861;28;20247;-80
2021/03/06 10:31:56;;;;;;;4.63;1.40;;;;;;;4.32;65.84;103040.50;4966389;28;20446;-82
2021/03/06 10:34:28;;;;;;;4.72;1.45;;;;;;;4.51;65.57;103033.41;4992638;28;20049;-81
2021/03/06 10:37:10;;;;;;;4.32;1.48;;;;;;;4.66;66.85;103032.72;4996698;28;20069;-79
2021/03/06 10:40:02;;;;;;;6.53;2.35;;;;;;;4.51;64.44;103036.06;4990928;28;20042;-79
2021/03/06 10:42:43;;;;;;;4.03;2.60;;;;;;;4.52;68.60;103037.81;4953615;28;20061;-82
2021/03/06 10:45:30;;;;;;;3.70;1.40;;;;;;;4.79;66.82;103037.47;4982387;28;20046;-81
2021/03/06 10:47:57;;;;;;;2.05;1.30;;;;;;;4.83;64.42;103036.38;4994165;28;20614;-80
2021/03/06 10:50:35;;;;;;;3.13;1.70;;;;;;;5.07;65.72;103037.00;4995112;28;20129;-81
2021/03/06 10:53:21;;;;;;;2.90;1.50;;;;;;;4.91;65.17;103039.53;4993068;28;20069;-80
2021/03/06 10:55:48;;;;;;;4.55;1.67;;;;;;;4.90;65.32;103021.84;4990882;28;20046;-83
2021/03/06 10:58:15;;;;;;;3.42;1.50;;;;;;;4.90;64.48;103021.84;4964840;28;20039;-79
2021/03/06 11:00:43;;;;;;;4.28;1.73;;;;;;;5.05;65.94;103030.91;5000740;28;20043;-82
2021/03/06 11:03:10;;;;;;;3.53;1.50;;;;;;;5.08;64.44;103036.94;4971333;28;20154;-79
2021/03/06 11:05:36;;;;;;;4.97;1.77;;;;;;;5.16;66.12;103024.13;4975424;28;20509;-79
2021/03/06 11:08:19;;;;;;;4.18;1.60;;;;;;;5.09;65.73;103033.34;4972037;28;20553;-80
2021/03/06 11:10:48;;;;;;;5.10;1.50;;;;;;;5.05;65.52;103029.09;5008986;28;20055;-82
2021/03/06 11:13:14;;;;;;;4.40;2.17;;;;;;;5.17;63.74;103024.97;5003054;28;20055;-82
2021/03/06 11:15:50;;;;;;;4.60;1.60;;;;;;;5.33;64.98;103025.09;4967703;28;20043;-79
2021/03/06 11:18:17;;;;;;;2.88;1.38;;;;;;;5.58;65.95;103017.63;4996876;28;20081;-80
2021/03/06 11:20:42;;;;;;;3.88;1.50;;;;;;;5.78;64.76;103010.38;4956691;28;20134;-81
2021/03/06 11:23:08;;;;;;;3.30;1.30;;;;;;;5.77;63.89;103011.34;4964753;28;20122;-80
2021/03/06 11:25:34;;;;;;;3.45;1.33;;;;;;;5.77;66.49;103014.00;4960791;28;20744;-82
2021/03/06 11:28:04;;;;;;;3.85;1.20;;;;;;;5.71;63.37;103004.50;4971341;28;20046;-79
2021/03/06 11:30:31;;;;;;;;;;;;;;;5.85;64.74;103004.66;4982393;28;20092;-81
2021/03/06 11:32:57;;;;;;;4.07;1.60;;;;;;;5.87;63.87;103004.59;4977682;28;19918;-82